Terminal Aerodrome Forecast
Issued by NWS Twin Cities, MN

Home | Current Version | Previous Version | Text Only | Print | Product List | Glossary On
Versions: 1 2 3 4 5 6 7 8 9 10 11 12 13 14 15 16 17 18 19 20 21 22 23 24 25 26 27 28 29 30 31 32 33 34 35
000
FTUS43 KMPX 310500
TAFMSP
TAF
KMSP 310530Z 3106/0112 12004KT P6SM FEW050
     FM311200 13005KT P6SM VCSH SCT050 BKN090
     FM311600 16015G22KT P6SM SCT090
     FM312300 17014G22KT P6SM VCTS SCT040CB BKN070
      TEMPO 3123/0103 1SM TSRA BKN020CB OVC050
     FM010400 20008KT P6SM SCT020 BKN080
     FM010900 25006KT P6SM SCT100=

USA.gov is the U.S. government's official web portal to all federal, state and local government web resources and services.